Time;durP1;ratioP1;P1;durP2;ratioP2;P2;SDS_P1;SDS_P2;PMS_P1;PMS_P2;Temp;Humidity;BMP_temperature;BMP_pressure;BME280_temperature;BME280_humidity;BME280_pressure;Samples;Min_cycle;Max_cycle;Signal;HPM_P1;HPM_P2
2022/11/30 00:00:55;;;;;;;40.45;13.98;;;;;;;3.98;100.00;101619.22;6100614;28;20036;-72
2022/11/30 00:03:55;;;;;;;35.42;11.98;;;;;;;3.97;100.00;101617.50;6099945;28;20499;-72
2022/11/30 00:06:55;;;;;;;32.60;11.25;;;;;;;3.92;100.00;101597.69;6100106;28;20033;-71
2022/11/30 00:09:51;;;;;;;37.47;11.30;;;;;;;3.96;100.00;101612.34;6100643;28;20120;-71
2022/11/30 00:12:46;;;;;;;36.92;10.82;;;;;;;4.01;100.00;101619.06;6099158;28;20070;-72
2022/11/30 00:15:41;;;;;;;31.70;11.05;;;;;;;4.00;100.00;101612.09;6100102;28;20481;-71
2022/11/30 00:18:37;;;;;;;42.00;13.70;;;;;;;4.04;100.00;101607.53;6099187;28;20444;-71
2022/11/30 00:21:32;;;;;;;31.55;12.43;;;;;;;3.99;100.00;101591.22;6099959;28;20052;-73
2022/11/30 00:24:28;;;;;;;32.90;10.90;;;;;;;3.90;100.00;101594.31;6099554;28;20037;-72
2022/11/30 00:27:23;;;;;;;37.47;10.77;;;;;;;4.01;100.00;101611.19;6104383;28;20081;-72
2022/11/30 00:30:18;;;;;;;35.23;12.30;;;;;;;4.01;100.00;101612.97;6099733;28;20094;-71
2022/11/30 00:33:14;;;;;;;34.30;13.05;;;;;;;3.97;100.00;101606.16;6100168;28;20438;-71
2022/11/30 00:36:18;;;;;;;43.13;11.63;;;;;;;3.96;100.00;101612.34;6099555;28;20277;-72
2022/11/30 00:39:13;;;;;;;33.95;11.45;;;;;;;3.92;100.00;101597.69;6099705;28;20135;-71
2022/11/30 00:42:09;;;;;;;35.07;11.17;;;;;;;3.95;100.00;101590.50;6098704;28;20477;-71
2022/11/30 00:45:05;;;;;;;37.93;12.07;;;;;;;3.96;100.00;101594.00;6099400;28;20037;-71
2022/11/30 00:48:00;;;;;;;33.55;11.85;;;;;;;3.96;100.00;101600.09;6098815;28;20067;-71
2022/11/30 00:50:55;;;;;;;35.93;10.03;;;;;;;3.92;100.00;101593.31;6099611;28;20029;-72
2022/11/30 00:53:51;;;;;;;34.22;11.40;;;;;;;4.02;100.00;101604.16;6098326;28;20481;-71
2022/11/30 00:56:46;;;;;;;33.83;11.40;;;;;;;3.91;100.00;101589.00;6099449;28;20079;-73
2022/11/30 00:59:41;;;;;;;38.93;11.67;;;;;;;3.93;100.00;101596.78;6099259;28;20029;-72
2022/11/30 01:02:36;;;;;;;33.87;10.33;;;;;;;4.06;100.00;101608.31;6098283;28;20098;-72
2022/11/30 01:05:33;;;;;;;32.23;11.43;;;;;;;4.01;100.00;101605.09;6098240;28;20067;-71
2022/11/30 01:08:28;;;;;;;34.08;11.93;;;;;;;3.94;100.00;101601.94;6098649;28;20037;-73
2022/11/30 01:11:28;;;;;;;36.97;11.73;;;;;;;3.93;100.00;101596.78;6099151;28;20393;-71
2022/11/30 01:14:23;;;;;;;33.10;11.52;;;;;;;3.97;100.00;101601.75;6097909;28;20051;-72
2022/11/30 01:17:18;;;;;;;33.93;10.90;;;;;;;3.88;100.00;101596.19;6097637;28;20764;-71
2022/11/30 01:20:14;;;;;;;32.87;10.87;;;;;;;4.02;100.00;101609.41;6098305;28;20279;-72
2022/11/30 01:23:09;;;;;;;30.33;11.80;;;;;;;3.97;100.00;101611.41;6097968;28;20040;-72
2022/11/30 01:26:05;;;;;;;34.70;11.52;;;;;;;4.02;100.00;101618.09;6098187;28;20064;-72
2022/11/30 01:29:00;;;;;;;34.95;11.25;;;;;;;3.97;100.00;101596.53;6098417;28;20492;-71
2022/11/30 01:31:56;;;;;;;34.13;11.57;;;;;;;3.98;100.00;101611.34;6097596;28;20029;-71
2022/11/30 01:34:51;;;;;;;31.50;10.70;;;;;;;3.93;100.00;101599.41;6099638;28;20040;-71
2022/11/30 01:37:46;;;;;;;34.45;11.80;;;;;;;3.98;100.00;101615.75;6097823;28;20039;-72
2022/11/30 01:40:49;;;;;;;39.80;11.37;;;;;;;3.96;100.00;101609.72;6098179;28;20540;-73
2022/11/30 01:43:46;;;;;;;34.53;12.52;;;;;;;3.91;100.00;101609.13;6097734;28;20737;-71
2022/11/30 01:46:52;;;;;;;34.83;12.70;;;;;;;3.93;100.00;101599.41;6097045;28;20461;-72
2022/11/30 01:49:51;;;;;;;32.75;9.68;;;;;;;3.91;100.00;101607.38;6097981;28;20040;-72
2022/11/30 01:52:52;;;;;;;36.47;11.45;;;;;;;3.90;100.00;101604.81;6095761;28;20421;-71
2022/11/30 01:55:48;;;;;;;37.70;11.40;;;;;;;3.92;100.00;101614.28;6098021;28;20037;-72
2022/11/30 01:58:43;;;;;;;31.80;12.65;;;;;;;3.73;100.00;101587.34;6097485;28;20389;-72
2022/11/30 02:01:38;;;;;;;36.03;11.17;;;;;;;3.91;100.00;101606.50;6097092;28;20076;-71
2022/11/30 02:04:35;;;;;;;31.25;10.32;;;;;;;3.92;100.00;101602.94;6085163;28;20021;-71
2022/11/30 02:07:30;;;;;;;35.17;11.80;;;;;;;3.84;100.00;101597.25;6098706;28;20060;-72
2022/11/30 02:10:27;;;;;;;37.90;10.90;;;;;;;3.86;100.00;101588.38;6097812;28;20039;-71
2022/11/30 02:13:45;;;;;;;38.00;11.30;;;;;;;3.94;100.00;101601.94;6095141;28;20314;-72
2022/11/30 02:16:59;;;;;;;33.85;12.35;;;;;;;3.90;100.00;101615.31;6093432;28;20040;-71
2022/11/30 02:20:06;;;;;;;35.33;11.98;;;;;;;3.88;100.00;101612.78;6096035;28;20076;-72
2022/11/30 02:23:17;;;;;;;41.58;11.52;;;;;;;3.84;100.00;101610.38;6096506;28;20037;-72
2022/11/30 02:26:39;;;;;;;35.72;12.30;;;;;;;3.91;100.00;101612.63;6097419;28;20040;-73
2022/11/30 02:29:43;;;;;;;40.35;12.38;;;;;;;3.83;100.00;101601.66;6097318;28;20045;-71
2022/11/30 02:32:45;;;;;;;34.47;11.82;;;;;;;3.83;100.00;101598.22;6097270;28;20075;-71
2022/11/30 02:35:43;;;;;;;37.45;12.65;;;;;;;3.92;100.00;101609.03;6096136;28;20037;-72
2022/11/30 02:38:39;;;;;;;35.08;11.10;;;;;;;3.88;100.00;101606.66;6095642;28;20040;-72
2022/11/30 02:41:39;;;;;;;39.10;13.27;;;;;;;3.89;100.00;101606.56;6097487;28;20070;-71
2022/11/30 02:44:34;;;;;;;38.28;13.15;;;;;;;3.86;100.00;101609.34;6095827;28;20444;-71
2022/11/30 02:47:40;;;;;;;39.60;12.73;;;;;;;3.90;100.00;101616.16;6095727;28;20039;-71
2022/11/30 02:50:43;;;;;;;35.30;10.25;;;;;;;3.86;100.00;101608.53;6095599;28;20044;-71
2022/11/30 02:53:38;;;;;;;42.00;12.25;;;;;;;3.85;100.00;101620.81;6094723;28;20110;-73
2022/11/30 02:56:34;;;;;;;37.40;12.32;;;;;;;3.93;100.00;101628.25;6095886;28;20533;-72
2022/11/30 02:59:29;;;;;;;37.33;12.13;;;;;;;3.85;100.00;101612.94;6095355;28;20036;-72
2022/11/30 03:02:24;;;;;;;40.83;13.50;;;;;;;3.95;100.00;101613.28;6096593;28;20309;-72
2022/11/30 03:05:20;;;;;;;40.97;12.73;;;;;;;3.86;100.00;101600.66;6096466;28;20029;-72
2022/11/30 03:08:15;;;;;;;39.33;12.13;;;;;;;3.95;100.00;101621.16;6095787;28;20059;-73
2022/11/30 03:11:10;;;;;;;38.57;12.90;;;;;;;3.94;100.00;101622.91;6097026;28;20033;-71
2022/11/30 03:14:05;;;;;;;46.53;12.77;;;;;;;3.84;100.00;101613.00;6097283;28;20044;-73
2022/11/30 03:17:01;;;;;;;40.83;12.20;;;;;;;3.91;100.00;101619.63;6101236;28;20037;-73
2022/11/30 03:19:56;;;;;;;39.73;12.97;;;;;;;3.84;100.00;101618.25;6101180;28;20439;-72
2022/11/30 03:22:51;;;;;;;44.17;13.03;;;;;;;3.85;100.00;101612.94;6100889;28;20036;-72
2022/11/30 03:25:47;;;;;;;46.17;13.13;;;;;;;3.95;100.00;101626.41;6101601;28;20639;-71
2022/11/30 03:28:42;;;;;;;38.20;11.60;;;;;;;3.89;100.00;101618.84;6100854;28;20060;-72
2022/11/30 03:31:37;;;;;;;40.23;14.20;;;;;;;3.91;100.00;101632.75;6101379;28;20024;-71
2022/11/30 03:34:33;;;;;;;46.73;12.70;;;;;;;3.90;100.00;101620.53;6101254;28;20806;-71
2022/11/30 03:37:28;;;;;;;41.73;12.50;;;;;;;3.89;100.00;101614.44;6101179;28;20036;-72
2022/11/30 03:40:23;;;;;;;42.27;12.57;;;;;;;3.96;100.00;101633.34;6101224;28;20036;-72
2022/11/30 03:43:18;;;;;;;44.73;13.63;;;;;;;3.88;100.00;101623.25;6104026;28;20028;-72
2022/11/30 03:46:14;;;;;;;44.80;13.90;;;;;;;3.90;100.00;101633.66;6101274;28;20033;-72
2022/11/30 03:49:09;;;;;;;31.47;11.23;;;;;;;3.95;100.00;101634.25;6100326;28;20079;-72
2022/11/30 03:52:04;;;;;;;48.03;14.93;;;;;;;3.95;100.00;101639.50;6100037;28;20739;-71
2022/11/30 03:55:00;;;;;;;46.73;13.90;;;;;;;3.94;100.00;101646.53;6100782;28;20045;-71
2022/11/30 03:57:55;;;;;;;48.43;13.57;;;;;;;3.83;100.00;101630.50;6099654;28;20093;-71
2022/11/30 04:01:12;;;;;;;48.27;14.77;;;;;;;3.93;100.00;101652.72;6100618;28;20025;-73
2022/11/30 04:04:07;;;;;;;52.15;13.77;;;;;;;3.70;100.00;101612.88;6097120;28;20079;-72
2022/11/30 04:07:02;;;;;;;44.08;14.77;;;;;;;3.90;100.00;101649.41;6100414;28;20534;-72
2022/11/30 04:09:58;;;;;;;43.00;14.87;;;;;;;3.85;100.00;101649.66;6100486;28;20029;-72
2022/11/30 04:12:53;;;;;;;53.13;15.63;;;;;;;3.87;100.00;101652.19;6099657;28;20021;-72
2022/11/30 04:15:49;;;;;;;47.57;13.63;;;;;;;3.92;100.00;101663.28;6101783;28;20068;-72
2022/11/30 04:18:45;;;;;;;44.28;14.48;;;;;;;3.92;100.00;101660.66;6099672;28;20037;-72
2022/11/30 04:21:40;;;;;;;49.90;15.30;;;;;;;3.97;100.00;101671.75;6100180;28;20029;-73
2022/11/30 04:24:35;;;;;;;57.65;17.23;;;;;;;3.95;100.00;101671.00;6098480;28;20032;-72
2022/11/30 04:27:31;;;;;;;45.07;13.33;;;;;;;3.95;100.00;101660.50;6100149;28;20060;-71
2022/11/30 04:30:26;;;;;;;49.40;14.33;;;;;;;3.96;100.00;101656.97;6100054;28;20041;-72
2022/11/30 04:33:21;;;;;;;48.13;15.63;;;;;;;3.94;100.00;101653.56;6100029;28;20315;-72
2022/11/30 04:36:18;;;;;;;45.33;14.93;;;;;;;3.95;100.00;101660.50;6099634;28;20032;-72
2022/11/30 04:39:13;;;;;;;45.38;13.60;;;;;;;3.94;100.00;101650.94;6099077;28;20272;-72
2022/11/30 04:42:09;;;;;;;47.63;14.20;;;;;;;4.00;100.00;101653.22;6098932;28;20493;-71
2022/11/30 04:45:04;;;;;;;46.50;13.60;;;;;;;3.98;100.00;101644.59;6098371;28;20071;-73
2022/11/30 04:48:00;;;;;;;57.17;14.02;;;;;;;3.96;100.00;101656.97;6098609;28;20118;-72
2022/11/30 04:51:03;;;;;;;47.97;15.00;;;;;;;4.03;100.00;101660.94;6099380;28;20037;-71
2022/11/30 04:54:00;;;;;;;41.42;13.38;;;;;;;3.99;100.00;101659.44;6098020;28;20031;-73
2022/11/30 04:56:56;;;;;;;51.17;15.30;;;;;;;4.01;100.00;101671.53;6099020;28;20029;-73
2022/11/30 04:59:51;;;;;;;39.30;14.10;;;;;;;4.00;100.00;101674.22;6099253;28;20087;-71
2022/11/30 05:02:46;;;;;;;51.33;14.32;;;;;;;4.03;100.00;101674.91;6098414;28;20263;-71
2022/11/30 05:05:42;;;;;;;56.30;16.07;;;;;;;3.96;100.00;101665.69;6099236;28;20037;-72
2022/11/30 05:08:39;;;;;;;43.80;14.83;;;;;;;4.02;100.00;101672.38;6100012;28;20267;-71
2022/11/30 05:11:34;;;;;;;55.78;16.48;;;;;;;4.02;100.00;101675.84;6082256;28;20039;-72
2022/11/30 05:14:29;;;;;;;43.90;13.48;;;;;;;3.95;100.00;101663.13;6098276;28;20029;-71
2022/11/30 05:17:25;;;;;;;54.07;16.13;;;;;;;3.98;100.00;101660.34;6098929;28;20047;-72
2022/11/30 05:20:20;;;;;;;46.53;15.13;;;;;;;4.03;100.00;101674.91;6106268;28;20048;-72
2022/11/30 05:23:16;;;;;;;50.80;14.93;;;;;;;4.01;100.00;101682.03;6097681;28;20268;-72
2022/11/30 05:26:11;;;;;;;50.75;14.50;;;;;;;4.04;100.00;101691.53;6098512;28;20025;-72
2022/11/30 05:29:07;;;;;;;46.27;14.57;;;;;;;4.00;100.00;101689.97;6098165;28;20560;-72
2022/11/30 05:32:02;;;;;;;51.47;14.33;;;;;;;4.00;100.00;101689.97;6097385;28;20769;-71
2022/11/30 05:34:58;;;;;;;50.90;16.58;;;;;;;3.99;100.00;101677.78;6099127;28;20637;-71
2022/11/30 05:37:53;;;;;;;53.50;15.83;;;;;;;4.01;100.00;101697.78;6095190;28;20036;-72
2022/11/30 05:40:48;;;;;;;52.10;15.68;;;;;;;4.00;100.00;101684.72;6094459;28;20280;-72
2022/11/30 05:43:44;;;;;;;49.27;14.67;;;;;;;4.03;100.00;101695.06;6095132;28;20040;-71
2022/11/30 05:46:39;;;;;;;51.53;16.50;;;;;;;3.98;100.00;101681.34;6096767;28;20067;-71
2022/11/30 05:49:34;;;;;;;48.50;14.87;;;;;;;4.00;100.00;101684.72;6098177;28;20036;-72
2022/11/30 05:52:30;;;;;;;54.80;15.73;;;;;;;3.98;100.00;101690.06;6095972;28;20031;-72
2022/11/30 05:55:27;;;;;;;51.47;15.27;;;;;;;4.06;100.00;101697.53;6097964;28;20275;-71
2022/11/30 05:58:22;;;;;;;58.90;18.42;;;;;;;4.05;100.00;101691.41;6097476;28;20435;-71
2022/11/30 06:01:25;;;;;;;48.13;15.65;;;;;;;4.07;100.00;101699.22;6097589;28;20037;-72
2022/11/30 06:04:21;;;;;;;51.22;16.27;;;;;;;4.07;100.00;101694.84;6096838;28;20067;-72
2022/11/30 06:07:16;;;;;;;60.40;17.40;;;;;;;4.08;100.00;101690.41;6097363;28;20037;-71
2022/11/30 06:10:12;;;;;;;61.90;17.77;;;;;;;4.09;100.00;101695.59;6097378;28;20378;-72
2022/11/30 06:13:08;;;;;;;61.60;18.95;;;;;;;4.04;100.00;101696.75;6096865;28;20107;-72
2022/11/30 06:16:04;;;;;;;56.83;17.17;;;;;;;3.98;100.00;101686.59;6096802;28;20033;-72
2022/11/30 06:18:59;;;;;;;58.50;17.23;;;;;;;4.04;100.00;101702.00;6096893;28;20037;-72
2022/11/30 06:21:54;;;;;;;59.73;18.00;;;;;;;4.09;100.00;101705.25;6096016;28;20159;-71
2022/11/30 06:24:50;;;;;;;60.50;16.10;;;;;;;4.09;100.00;101711.34;6096414;28;20040;-72
2022/11/30 06:27:45;;;;;;;61.20;19.40;;;;;;;4.04;100.00;101707.25;6096287;28;20366;-72
2022/11/30 06:30:40;;;;;;;57.33;16.87;;;;;;;4.06;100.00;101716.75;6097317;28;20036;-72
2022/11/30 06:33:36;;;;;;;52.50;16.83;;;;;;;4.00;100.00;101706.56;6097373;28;20033;-71
2022/11/30 06:36:31;;;;;;;58.88;16.92;;;;;;;4.09;100.00;101720.97;6097167;28;20021;-71
2022/11/30 06:39:27;;;;;;;55.80;15.97;;;;;;;4.10;100.00;101722.69;6097162;28;20033;-70
2022/11/30 06:42:22;;;;;;;62.90;17.70;;;;;;;4.09;100.00;101728.84;6096027;28;20036;-71
2022/11/30 06:45:17;;;;;;;63.93;16.90;;;;;;;4.05;100.00;101724.72;6098241;28;20039;-72
2022/11/30 06:48:13;;;;;;;66.80;17.30;;;;;;;4.10;100.00;101730.56;6098192;28;20039;-71
2022/11/30 06:51:09;;;;;;;66.43;18.17;;;;;;;4.10;100.00;101733.19;6100878;28;20394;-70
2022/11/30 06:54:05;;;;;;;56.28;17.10;;;;;;;4.13;100.00;101735.66;6100391;28;20470;-72
2022/11/30 06:57:01;;;;;;;66.97;18.20;;;;;;;4.10;100.00;101735.81;6101486;28;20060;-72
2022/11/30 06:59:56;;;;;;;63.55;17.65;;;;;;;4.07;100.00;101730.72;6101239;28;20071;-71
2022/11/30 07:02:51;;;;;;;74.18;18.83;;;;;;;4.17;100.00;101739.81;6100763;28;20396;-72
2022/11/30 07:05:47;;;;;;;68.33;18.23;;;;;;;4.03;100.00;101737.03;6101621;28;20069;-72
2022/11/30 07:08:43;;;;;;;58.13;16.63;;;;;;;4.16;100.00;101740.72;6101343;28;20662;-72
2022/11/30 07:11:38;;;;;;;60.80;17.65;;;;;;;4.05;100.00;101748.34;6101306;28;20295;-71
2022/11/30 07:14:33;;;;;;;63.17;17.70;;;;;;;4.11;100.00;101740.97;6099974;28;20435;-71
2022/11/30 07:17:29;;;;;;;62.27;16.67;;;;;;;4.12;100.00;101757.56;6101216;28;20119;-72
2022/11/30 07:20:24;;;;;;;66.57;18.77;;;;;;;4.12;100.00;101758.44;6103980;28;20033;-71
2022/11/30 07:26:33;;;;;;;55.88;16.63;;;;;;;4.22;100.00;101767.50;6101302;28;20032;-72
2022/11/30 07:29:28;;;;;;;67.20;16.97;;;;;;;3.98;100.00;101736.44;6101334;28;20481;-71
2022/11/30 07:32:24;;;;;;;58.67;16.98;;;;;;;4.11;100.00;101754.09;6100566;28;20116;-73
2022/11/30 07:35:19;;;;;;;67.73;18.33;;;;;;;4.12;100.00;101760.19;6100064;28;20041;-72
2022/11/30 07:38:14;;;;;;;73.50;18.60;;;;;;;4.08;100.00;101763.88;6100029;28;20380;-70
2022/11/30 07:41:10;;;;;;;72.07;18.43;;;;;;;4.12;100.00;101775.94;6100097;28;20036;-71
2022/11/30 07:44:06;;;;;;;66.20;18.80;;;;;;;4.15;100.00;101773.16;6100032;28;20021;-72
2022/11/30 07:47:02;;;;;;;63.90;18.00;;;;;;;4.16;100.00;101770.44;6099806;28;20037;-72
2022/11/30 07:49:57;;;;;;;72.07;17.53;;;;;;;4.21;100.00;101781.56;6100428;28;20035;-72
2022/11/30 07:52:52;;;;;;;56.00;15.70;;;;;;;4.13;100.00;101752.22;6099590;28;20349;-71
2022/11/30 07:55:48;;;;;;;58.87;16.90;;;;;;;4.21;100.00;101778.09;6100365;28;20287;-71
2022/11/30 07:58:43;;;;;;;74.03;17.23;;;;;;;4.22;100.00;101771.91;6100316;28;20124;-70
2022/11/30 08:01:39;;;;;;;63.83;17.90;;;;;;;4.21;100.00;101768.44;6099064;28;20297;-70
2022/11/30 08:04:34;;;;;;;59.57;17.40;;;;;;;4.21;100.00;101763.19;6100064;28;20061;-71
2022/11/30 08:07:29;;;;;;;69.03;17.07;;;;;;;4.24;100.00;101772.66;6099634;28;20496;-71
2022/11/30 08:10:24;;;;;;;51.23;16.50;;;;;;;4.29;100.00;101778.56;6099817;28;20044;-71
2022/11/30 08:13:20;;;;;;;66.00;18.87;;;;;;;4.22;100.00;101771.91;6099214;28;20024;-72
2022/11/30 08:16:17;;;;;;;70.10;19.50;;;;;;;4.31;100.00;101778.47;6099348;28;20041;-72
2022/11/30 08:19:13;;;;;;;73.45;16.75;;;;;;;4.21;100.00;101763.19;6099600;28;20024;-72
2022/11/30 08:22:08;;;;;;;69.80;18.05;;;;;;;4.27;100.00;101777.75;6098476;28;20044;-72
2022/11/30 08:25:04;;;;;;;82.30;19.90;;;;;;;4.26;100.00;101778.72;6099377;28;20056;-71
2022/11/30 08:27:59;;;;;;;73.05;19.65;;;;;;;4.20;100.00;101765.91;6100040;28;20029;-72
2022/11/30 08:31:00;;;;;;;75.97;20.50;;;;;;;4.28;100.00;101781.25;6099246;28;20037;-72
2022/11/30 08:34:00;;;;;;;74.15;17.63;;;;;;;4.35;100.00;101780.00;6094426;28;20025;-71
2022/11/30 08:36:55;;;;;;;83.13;21.02;;;;;;;4.28;100.00;101779.47;6098624;28;20029;-72
2022/11/30 08:39:50;;;;;;;58.97;17.30;;;;;;;4.40;100.00;101788.50;6099189;28;20037;-72
2022/11/30 08:42:45;;;;;;;83.33;19.60;;;;;;;4.38;100.00;101795.56;6097694;28;20123;-70
2022/11/30 08:45:41;;;;;;;75.63;17.53;;;;;;;4.32;100.00;101786.25;6099203;28;20036;-72
2022/11/30 08:48:36;;;;;;;70.03;19.33;;;;;;;4.36;100.00;101784.31;6097732;28;20041;-72
2022/11/30 08:51:32;;;;;;;74.07;18.83;;;;;;;4.37;100.00;101792.13;6098056;28;20043;-72
2022/11/30 08:54:27;;;;;;;84.95;20.05;;;;;;;4.37;100.00;101797.38;6097509;28;20029;-71
2022/11/30 08:57:23;;;;;;;86.07;22.17;;;;;;;4.40;100.00;101805.09;6098550;28;20055;-71
2022/11/30 09:00:18;;;;;;;79.47;19.53;;;;;;;4.49;100.00;101814.25;6098970;28;20029;-72
2022/11/30 09:03:14;;;;;;;66.95;20.40;;;;;;;4.40;100.00;101799.84;6098314;28;20028;-72
2022/11/30 09:06:17;;;;;;;74.93;19.27;;;;;;;4.58;100.00;101819.88;6098878;28;20037;-72
2022/11/30 09:09:12;;;;;;;88.13;20.50;;;;;;;4.53;100.00;101814.03;6098180;28;20048;-71
2022/11/30 09:12:08;;;;;;;69.93;19.50;;;;;;;4.68;100.00;101825.50;6096564;28;20037;-71
2022/11/30 09:15:05;;;;;;;69.43;18.70;;;;;;;4.64;100.00;101808.22;6098257;28;20126;-72
2022/11/30 09:18:00;;;;;;;71.90;19.20;;;;;;;4.64;100.00;101818.72;6098591;28;20082;-71
2022/11/30 09:21:07;;;;;;;64.75;17.77;;;;;;;4.68;100.00;101831.59;6097116;28;20036;-72
2022/11/30 09:24:03;;;;;;;77.18;19.73;;;;;;;4.55;100.00;101811.31;6092068;28;20086;-71
2022/11/30 09:26:58;;;;;;;76.10;19.38;;;;;;;4.68;100.00;101821.09;6097628;28;20172;-72
2022/11/30 09:29:54;;;;;;;82.33;19.57;;;;;;;4.63;100.00;101820.50;6098086;28;20021;-72
2022/11/30 09:32:49;;;;;;;91.37;19.70;;;;;;;4.62;100.00;101818.78;6098511;28;20036;-71
2022/11/30 09:35:53;;;;;;;78.33;19.80;;;;;;;4.65;100.00;101825.66;6098205;28;20094;-72
2022/11/30 09:38:49;;;;;;;71.68;20.60;;;;;;;4.61;100.00;101813.63;6098004;28;20037;-71
2022/11/30 09:42:22;;;;;;;74.17;18.67;;;;;;;4.71;100.00;101823.56;6096865;28;20393;-71
2022/11/30 09:45:18;;;;;;;;;;;;;;;4.66;100.00;101825.59;6097643;28;20078;-71
2022/11/30 09:48:41;;;;;;;64.72;17.17;;;;;;;4.70;100.00;101824.47;6098799;28;19932;-72
2022/11/30 09:51:44;;;;;;;70.35;19.50;;;;;;;4.60;100.00;101815.41;6085606;28;20048;-72
2022/11/30 09:54:41;;;;;;;74.60;19.20;;;;;;;4.71;100.00;101820.94;6094619;28;20064;-72
2022/11/30 09:57:46;;;;;;;71.70;18.80;;;;;;;4.63;100.00;101807.34;6095868;28;20021;-72
2022/11/30 10:00:41;;;;;;;73.35;18.30;;;;;;;4.70;100.00;101811.34;6097617;28;20044;-71
2022/11/30 10:03:37;;;;;;;63.13;17.97;;;;;;;4.82;100.00;101813.34;6096052;28;20044;-70
2022/11/30 10:07:05;;;;;;;65.93;20.20;;;;;;;4.91;100.00;101811.13;6097571;28;20385;-71
2022/11/30 10:10:18;;;;;;;59.60;17.85;;;;;;;5.00;100.00;101815.91;6074217;28;20483;-72
2022/11/30 10:13:39;;;;;;;65.15;17.90;;;;;;;4.94;100.00;101811.81;6095406;28;20496;-72
2022/11/30 10:16:55;;;;;;;62.35;17.42;;;;;;;4.98;100.00;101807.22;6096033;28;20051;-71
2022/11/30 10:19:59;;;;;;;52.55;15.70;;;;;;;5.00;100.00;101808.03;6097623;28;20087;-72
2022/11/30 10:23:38;;;;;;;57.53;16.55;;;;;;;4.98;100.00;101817.75;6099491;28;20539;-72
2022/11/30 10:26:37;;;;;;;63.38;17.45;;;;;;;5.00;100.00;101808.03;6088199;28;20131;-72
2022/11/30 10:29:35;;;;;;;65.45;17.30;;;;;;;5.02;100.00;101814.03;6097372;28;20103;-70
2022/11/30 10:32:35;;;;;;;62.20;17.15;;;;;;;4.94;100.00;101796.06;6098098;28;20706;-72
2022/11/30 10:35:40;;;;;;;61.03;16.67;;;;;;;4.93;100.00;101814.53;6095355;28;20029;-71
2022/11/30 10:38:40;;;;;;;57.30;17.65;;;;;;;4.97;100.00;101795.03;6120263;28;20029;-73
2022/11/30 10:41:52;;;;;;;63.05;19.58;;;;;;;5.01;100.00;101820.22;6095514;28;20600;-72
2022/11/30 10:45:08;;;;;;;56.40;15.88;;;;;;;4.90;100.00;101809.44;6096477;28;20122;-71
2022/11/30 10:48:16;;;;;;;63.63;18.75;;;;;;;4.88;100.00;101811.28;6095239;28;20041;-71
2022/11/30 10:51:11;;;;;;;65.07;18.20;;;;;;;4.96;100.00;101803.84;6096333;28;20037;-72
2022/11/30 10:54:15;;;;;;;56.60;17.42;;;;;;;4.88;100.00;101803.41;6094123;28;20429;-73
2022/11/30 10:57:13;;;;;;;57.28;16.77;;;;;;;4.89;100.00;101818.25;6095266;28;20033;-72
2022/11/30 11:00:14;;;;;;;64.80;19.33;;;;;;;4.76;100.00;101811.03;6095517;28;20474;-72
2022/11/30 11:03:25;;;;;;;68.60;18.13;;;;;;;4.76;100.00;101808.41;6095690;28;20040;-72
2022/11/30 11:06:22;;;;;;;61.67;18.25;;;;;;;4.75;100.00;101822.47;6096579;28;20072;-70
2022/11/30 11:09:33;;;;;;;59.78;16.92;;;;;;;4.80;100.00;101822.22;6094560;28;20087;-71
2022/11/30 11:12:29;;;;;;;49.05;14.65;;;;;;;4.81;100.00;101831.78;6083430;28;20036;-71
2022/11/30 11:15:26;;;;;;;59.53;17.77;;;;;;;4.77;100.00;101825.88;6096492;28;20044;-71
2022/11/30 11:18:22;;;;;;;64.70;19.13;;;;;;;4.81;100.00;101837.03;6096249;28;20036;-72
2022/11/30 11:21:19;;;;;;;60.58;16.00;;;;;;;4.85;100.00;101843.00;6096634;28;20021;-71
2022/11/30 11:24:18;;;;;;;60.60;17.80;;;;;;;4.76;100.00;101839.91;6097529;28;20108;-72
2022/11/30 11:27:26;;;;;;;55.70;16.25;;;;;;;4.82;100.00;101844.84;6095972;28;20040;-72
2022/11/30 11:30:24;;;;;;;49.25;16.33;;;;;;;4.89;100.00;101849.78;6095190;28;20432;-72
2022/11/30 11:33:28;;;;;;;61.05;17.67;;;;;;;4.82;100.00;101844.84;6094752;28;20057;-72
2022/11/30 11:36:31;;;;;;;67.07;18.70;;;;;;;4.77;100.00;101836.38;6098717;28;20033;-71
2022/11/30 11:39:27;;;;;;;58.33;19.40;;;;;;;4.76;100.00;101849.56;6099772;28;20043;-70
2022/11/30 11:42:22;;;;;;;64.43;18.70;;;;;;;4.72;100.00;101848.06;6098745;28;20591;-71
2022/11/30 11:45:24;;;;;;;66.32;19.92;;;;;;;4.70;100.00;101840.25;6098914;28;20385;-71
2022/11/30 11:48:44;;;;;;;68.72;18.13;;;;;;;4.66;100.00;101837.88;6097933;28;20032;-71
2022/11/30 11:51:39;;;;;;;72.32;18.63;;;;;;;4.76;100.00;101850.44;6100173;28;20041;-72
2022/11/30 11:54:40;;;;;;;71.63;21.00;;;;;;;4.67;100.00;101832.50;6099790;28;20040;-71
2022/11/30 11:57:52;;;;;;;67.20;19.15;;;;;;;4.87;100.00;101844.59;6100021;28;20750;-71
2022/11/30 12:00:48;;;;;;;78.82;21.15;;;;;;;4.82;100.00;101844.00;6097564;28;20040;-72
2022/11/30 12:04:04;;;;;;;63.47;18.55;;;;;;;4.69;100.00;101833.31;6100163;28;20032;-72
2022/11/30 12:07:02;;;;;;;77.07;20.33;;;;;;;4.72;100.00;101833.16;6098316;28;20048;-72
2022/11/30 12:10:21;;;;;;;70.30;19.08;;;;;;;4.80;100.00;101843.25;6099379;28;20049;-72
2022/11/30 12:13:21;;;;;;;65.55;19.13;;;;;;;4.74;100.00;101841.78;6098253;28;20041;-73
2022/11/30 12:16:24;;;;;;;72.68;21.42;;;;;;;4.70;100.00;101832.34;6098129;28;20037;-72
2022/11/30 12:19:50;;;;;;;80.93;19.60;;;;;;;4.78;100.00;101847.75;6099590;28;20453;-72
2022/11/30 12:23:27;;;;;;;75.97;23.17;;;;;;;4.80;100.00;101851.13;6099365;28;20388;-73
2022/11/30 12:26:34;;;;;;;65.70;19.58;;;;;;;4.70;100.00;101848.13;6092261;28;20590;-73
2022/11/30 12:29:57;;;;;;;59.30;18.02;;;;;;;4.76;100.00;101863.56;6099443;28;20040;-72
2022/11/30 12:33:19;;;;;;;58.83;16.85;;;;;;;4.74;100.00;101860.19;6100497;28;20462;-73
2022/11/30 12:36:23;;;;;;;65.95;18.35;;;;;;;4.71;100.00;101860.34;6098065;28;20474;-73
2022/11/30 12:39:28;;;;;;;63.65;18.27;;;;;;;4.73;100.00;101861.09;6098687;28;20033;-71
2022/11/30 12:42:39;;;;;;;63.90;21.83;;;;;;;4.74;100.00;101868.06;6096916;28;20087;-72
2022/11/30 12:45:40;;;;;;;68.15;20.83;;;;;;;4.72;100.00;101848.06;6091424;28;20560;-73
2022/11/30 12:48:51;;;;;;;46.65;15.45;;;;;;;4.80;100.00;101866.91;6098971;28;20143;-71
2022/11/30 12:51:58;;;;;;;49.22;15.60;;;;;;;4.80;100.00;101867.75;6098080;28;20041;-73
2022/11/30 12:54:59;;;;;;;49.55;15.27;;;;;;;4.77;100.00;101860.03;6099553;28;20033;-72
2022/11/30 12:58:04;;;;;;;57.08;16.73;;;;;;;4.69;100.00;101843.81;6099201;28;20478;-72
2022/11/30 13:01:06;;;;;;;59.83;17.58;;;;;;;4.74;100.00;101857.56;6102220;28;20111;-72
2022/11/30 13:04:15;;;;;;;56.90;15.48;;;;;;;4.73;100.00;101860.25;6100004;28;20044;-74
2022/11/30 13:07:23;;;;;;;50.90;17.23;;;;;;;4.78;100.00;101861.69;6097423;28;20619;-72
2022/11/30 13:10:30;;;;;;;51.17;16.77;;;;;;;4.75;100.00;101859.25;6097051;28;20033;-71
2022/11/30 13:13:28;;;;;;;;;;;;;;;4.78;100.00;101858.25;6096903;28;20037;-73
2022/11/30 13:16:24;;;;;;;53.05;15.15;;;;;;;4.68;100.00;101839.47;6098757;28;20007;-74
2022/11/30 13:19:46;;;;;;;51.95;15.40;;;;;;;4.84;100.00;101857.91;6107144;28;20433;-74
2022/11/30 13:23:05;;;;;;;47.72;13.50;;;;;;;4.85;100.00;101864.00;6097228;28;20119;-72
2022/11/30 13:26:26;;;;;;;40.33;13.18;;;;;;;4.80;100.00;101862.50;6097634;28;20056;-71
2022/11/30 13:29:56;;;;;;;50.05;14.27;;;;;;;4.78;100.00;101869.59;6089695;28;20108;-72
2022/11/30 13:32:51;;;;;;;38.55;12.48;;;;;;;4.80;100.00;101869.53;6098232;28;20036;-74
2022/11/30 13:35:53;;;;;;;45.20;13.07;;;;;;;4.76;100.00;101865.34;6098013;28;20063;-75
2022/11/30 13:39:08;;;;;;;41.28;13.75;;;;;;;4.75;100.00;101858.41;6109264;28;20044;-74